createdAt,value
2022-08-25T00:02:07.213Z,19.8
2022-08-25T00:04:09.181Z,19.8
2022-08-25T00:06:11.158Z,19.8
2022-08-25T00:08:13.150Z,19.8
2022-08-25T00:10:15.110Z,19.8
2022-08-25T00:12:20.189Z,19.7
2022-08-25T00:14:22.152Z,19.7
2022-08-25T00:16:24.152Z,19.7
2022-08-25T00:18:47.008Z,19.7
2022-08-25T00:20:49.268Z,19.7
2022-08-25T00:22:50.964Z,19.7
2022-08-25T00:24:56.076Z,19.7
2022-08-25T00:26:58.036Z,19.7
2022-08-25T00:29:01.672Z,19.7
2022-08-25T00:31:02.063Z,19.7
2022-08-25T00:33:03.978Z,19.7
2022-08-25T00:35:06.132Z,19.7
2022-08-25T00:37:07.959Z,19.7
2022-08-25T00:39:13.070Z,19.6
2022-08-25T00:41:14.979Z,19.6
2022-08-25T00:43:16.971Z,19.6
2022-08-25T00:45:18.951Z,19.5
2022-08-25T00:47:20.938Z,19.6
2022-08-25T00:49:25.386Z,19.6
2022-08-25T00:51:24.905Z,19.5
2022-08-25T00:53:29.957Z,19.6
2022-08-25T01:01:37.934Z,19.5
2022-08-25T01:03:39.873Z,19.5
2022-08-25T01:05:41.960Z,19.5
2022-08-25T01:07:46.914Z,19.4
2022-08-25T01:09:48.915Z,19.4
2022-08-25T01:11:50.884Z,19.4
2022-08-25T01:16:57.404Z,19.3
2022-08-25T01:23:06.457Z,19.2
2022-08-25T01:25:08.471Z,19.2
2022-08-25T01:27:10.426Z,19.1
2022-08-25T01:29:12.402Z,19.1
2022-08-25T01:31:23.471Z,19.1
2022-08-25T01:33:16.406Z,19.1
2022-08-25T01:35:21.475Z,19
2022-08-25T01:37:23.475Z,19
2022-08-25T01:39:25.494Z,19
2022-08-25T01:41:27.437Z,18.9
2022-08-25T01:45:31.436Z,18.8
2022-08-25T01:47:33.430Z,18.8
2022-08-25T01:49:38.501Z,18.8
2022-08-25T01:51:40.509Z,18.8
2022-08-25T01:53:42.480Z,18.7
2022-08-25T01:59:48.512Z,18.6
2022-08-25T02:01:50.559Z,18.6
2022-08-25T02:03:55.565Z,18.6
2022-08-25T02:05:57.571Z,18.6
2022-08-25T02:07:59.647Z,18.6
2022-08-25T02:09:02.184Z,18.6
2022-08-25T02:15:08.161Z,18.6
2022-08-25T02:17:13.190Z,18.6
2022-08-25T02:21:17.178Z,18.6
2022-08-25T02:23:19.209Z,18.6
2022-08-25T02:27:23.229Z,18.6
2022-08-25T02:29:25.246Z,18.6
2022-08-25T02:31:30.301Z,18.6
2022-08-25T02:33:32.295Z,18.6
2022-08-25T02:35:34.323Z,18.5
2022-08-25T02:37:36.291Z,18.6
2022-08-25T02:39:38.295Z,18.6
2022-08-25T02:41:40.307Z,18.6
2022-08-25T02:43:42.329Z,18.5
2022-08-25T02:45:47.493Z,18.5
2022-08-25T02:47:49.388Z,18.5
2022-08-25T02:49:51.403Z,18.5
2022-08-25T02:51:53.425Z,18.5
2022-08-25T02:53:55.382Z,18.4
2022-08-25T02:55:57.397Z,18.4
2022-08-25T02:57:59.451Z,18.3
2022-08-25T03:00:04.473Z,18.3
2022-08-25T03:02:06.468Z,18.3
2022-08-25T03:04:08.478Z,18.3
2022-08-25T03:05:11.060Z,18.3
2022-08-25T03:07:13.001Z,18.3
2022-08-25T03:09:15.011Z,18.3
2022-08-25T03:11:17.009Z,18.2
2022-08-25T03:13:22.079Z,18.2
2022-08-25T03:15:24.104Z,18.1
2022-08-25T03:17:26.096Z,18.1
2022-08-25T03:19:28.111Z,18.1
2022-08-25T03:21:30.102Z,18
2022-08-25T03:23:32.106Z,17.9
2022-08-25T03:25:34.109Z,17.9
2022-08-25T03:27:39.188Z,17.8
2022-08-25T03:29:41.195Z,17.8
2022-08-25T03:31:43.309Z,17.8
2022-08-25T03:33:45.195Z,17.8
2022-08-25T03:35:47.220Z,17.7
2022-08-25T03:37:49.207Z,17.7
2022-08-25T03:39:51.245Z,17.6
2022-08-25T03:41:56.287Z,17.6
2022-08-25T03:43:58.308Z,17.6
2022-08-25T03:48:02.372Z,17.5
2022-08-25T03:54:08.377Z,17.4
2022-08-25T04:10:45.464Z,17.2
2022-08-25T04:12:47.459Z,17.2
2022-08-25T04:16:51.563Z,17.1
2022-08-25T04:18:53.490Z,17.1
2022-08-25T04:20:55.517Z,17.1
2022-08-25T04:25:02.662Z,17
2022-08-25T04:27:04.636Z,17
2022-08-25T04:33:10.700Z,17
2022-08-25T04:35:12.712Z,17
2022-08-25T04:37:17.813Z,17
2022-08-25T04:39:19.809Z,17
2022-08-25T04:41:21.814Z,17
2022-08-25T04:43:23.844Z,17
2022-08-25T04:45:25.902Z,17
2022-08-25T04:47:28.145Z,17
2022-08-25T04:49:29.988Z,17
2022-08-25T04:51:34.985Z,17
2022-08-25T04:53:37.003Z,17
2022-08-25T04:56:41.573Z,17.1
2022-08-25T04:58:43.585Z,17.1
2022-08-25T05:00:47.189Z,17.1
2022-08-25T05:02:49.126Z,17.1
2022-08-25T05:04:54.209Z,17.1
2022-08-25T05:06:56.223Z,17.1
2022-08-25T05:08:58.249Z,17.2
2022-08-25T05:11:00.280Z,17.2
2022-08-25T05:13:02.296Z,17.3
2022-08-25T05:17:06.343Z,17.4
2022-08-25T05:19:11.439Z,17.4
2022-08-25T05:21:13.452Z,17.4
2022-08-25T05:29:21.532Z,17.8
2022-08-25T05:33:30.584Z,20
2022-08-25T05:35:30.631Z,19.6
2022-08-25T05:37:32.646Z,19
2022-08-25T05:39:34.668Z,18.6
2022-08-25T05:41:37.023Z,19
2022-08-25T05:43:38.694Z,20.7
2022-08-25T05:45:40.790Z,22.1
2022-08-25T05:47:45.803Z,23.4
2022-08-25T05:52:52.360Z,24
2022-08-25T05:54:54.370Z,24.4
2022-08-25T05:56:56.363Z,24.6
2022-08-25T05:58:58.374Z,24.7
2022-08-25T06:01:03.487Z,25.2
2022-08-25T06:03:05.432Z,25.4
2022-08-25T06:05:07.419Z,25.6
2022-08-25T06:07:09.572Z,25.9
2022-08-25T06:09:11.376Z,26
2022-08-25T06:11:13.365Z,26
2022-08-25T06:13:15.340Z,26.4
2022-08-25T06:15:20.380Z,27
2022-08-25T06:17:22.333Z,26.9
2022-08-25T06:19:24.306Z,26.9
2022-08-25T06:21:26.253Z,27.4
2022-08-25T06:23:28.193Z,27.6
2022-08-25T06:27:32.105Z,27.2
2022-08-25T06:29:37.143Z,28.3
2022-08-25T06:31:39.125Z,28.3
2022-08-25T06:33:41.006Z,27.9
2022-08-25T06:35:42.929Z,28.3
2022-08-25T06:39:46.811Z,28.2
2022-08-25T06:41:48.709Z,28.5
2022-08-25T06:43:57.511Z,28.3
2022-08-25T06:45:55.593Z,28.3
2022-08-25T06:48:59.991Z,28.9
2022-08-25T06:51:01.907Z,28.9
2022-08-25T06:53:03.789Z,29.4
2022-08-25T06:55:05.666Z,28.9
2022-08-25T06:57:10.653Z,29.3
2022-08-25T06:59:12.527Z,29.5
2022-08-25T07:01:19.600Z,29.4
2022-08-25T07:03:16.316Z,29.9
2022-08-25T07:05:27.383Z,30.6
2022-08-25T07:07:20.030Z,30.9
2022-08-25T07:09:21.866Z,30.4
2022-08-25T07:11:26.827Z,31
2022-08-25T07:13:28.659Z,30.8
2022-08-25T07:15:30.545Z,30.6
2022-08-25T07:17:32.371Z,30.9
2022-08-25T07:19:34.217Z,31.2
2022-08-25T07:21:36.058Z,31.2
2022-08-25T07:23:37.868Z,31.3
2022-08-25T07:25:42.817Z,30.9
2022-08-25T07:27:44.615Z,30.8
2022-08-25T07:29:46.428Z,30.9
2022-08-25T07:31:48.339Z,30.6
2022-08-25T07:33:50.059Z,31.2
2022-08-25T07:35:51.877Z,31.7
2022-08-25T07:37:53.753Z,31.8
2022-08-25T07:39:58.654Z,30.9
2022-08-25T07:42:00.370Z,31
2022-08-25T07:44:02.184Z,30.7
2022-08-25T07:46:24.642Z,31.6
2022-08-25T07:48:26.427Z,31.5
2022-08-25T07:50:28.209Z,31.9
2022-08-25T07:52:33.076Z,31.2
2022-08-25T07:54:35.462Z,31.3
2022-08-25T07:56:36.635Z,32
2022-08-25T07:58:38.432Z,32.4
2022-08-25T08:00:40.173Z,31.7
2022-08-25T08:02:41.991Z,31
2022-08-25T08:04:43.722Z,31.2
2022-08-25T08:08:50.366Z,31.3
2022-08-25T08:11:04.104Z,31.2
2022-08-25T08:12:53.924Z,31.1
2022-08-25T08:14:55.613Z,31
2022-08-25T08:16:57.346Z,30.6
2022-08-25T08:18:59.113Z,30.7
2022-08-25T08:21:03.959Z,30.3
2022-08-25T08:23:05.910Z,30.3
2022-08-25T08:27:09.225Z,29.6
2022-08-25T08:29:10.965Z,28.6
2022-08-25T08:31:12.722Z,28.3
2022-08-25T08:33:14.444Z,28.2
2022-08-25T08:35:19.285Z,28.1
2022-08-25T08:37:22.946Z,28.3
2022-08-25T08:39:22.938Z,28.4
2022-08-25T08:42:26.920Z,28.4
2022-08-25T08:44:28.653Z,28.7
2022-08-25T08:48:35.217Z,28.5
2022-08-25T08:50:36.995Z,28.3
2022-08-25T08:52:38.665Z,28
2022-08-25T08:54:41.283Z,28.1
2022-08-25T08:56:45.466Z,28.3
2022-08-25T08:58:43.857Z,28.3
2022-08-25T09:00:48.918Z,28.6
2022-08-25T09:04:52.168Z,29
2022-08-25T09:06:53.915Z,29.2
2022-08-25T09:08:55.692Z,29.5
2022-08-25T09:10:57.363Z,29.6
2022-08-25T09:12:59.111Z,29.6
2022-08-25T09:15:00.837Z,29.2
2022-08-25T09:17:05.685Z,29.4
2022-08-25T09:19:07.445Z,29.4
2022-08-25T09:21:09.165Z,29.5
2022-08-25T09:23:10.899Z,29.6
2022-08-25T09:25:12.604Z,29.3
2022-08-25T09:27:14.370Z,29.4
2022-08-25T09:29:16.812Z,29.3
2022-08-25T09:31:21.035Z,29.4
2022-08-25T09:33:22.659Z,29.5
2022-08-25T09:35:24.365Z,29.7
2022-08-25T09:38:28.516Z,29.9
2022-08-25T09:42:31.978Z,29.9
2022-08-25T09:44:36.829Z,30.4
2022-08-25T09:46:38.582Z,30.4
2022-08-25T09:48:40.826Z,30.4
2022-08-25T09:50:46.672Z,30.6
2022-08-25T09:52:43.722Z,30.8
2022-08-25T09:54:46.860Z,31.2
2022-08-25T09:56:47.136Z,31.1
2022-08-25T09:58:51.959Z,31.2
2022-08-25T10:00:53.659Z,31.2
2022-08-25T10:02:55.362Z,31.1
2022-08-25T10:04:57.213Z,31.2
2022-08-25T10:06:58.762Z,31
2022-08-25T10:09:00.439Z,31.2
2022-08-25T10:11:02.145Z,31.6
2022-08-25T10:13:07.141Z,31.9
2022-08-25T10:15:08.604Z,31.6
2022-08-25T10:17:10.300Z,31.4
2022-08-25T10:19:11.945Z,31.9
2022-08-25T10:21:13.635Z,31.9
2022-08-25T10:23:15.277Z,31.7
2022-08-25T10:25:16.919Z,31.6
2022-08-25T10:27:21.728Z,31.5
2022-08-25T10:29:23.388Z,31.7
2022-08-25T10:31:25.095Z,31.9
2022-08-25T10:32:27.409Z,32
2022-08-25T10:38:35.431Z,31.8
2022-08-25T10:40:37.185Z,32.2
2022-08-25T10:44:40.428Z,32.6
2022-08-25T10:46:42.047Z,32.4
2022-08-25T10:48:43.556Z,32.6
2022-08-25T10:52:48.304Z,32.5
2022-08-25T10:54:53.009Z,33.2
2022-08-25T10:56:57.443Z,32.9
2022-08-25T10:58:56.241Z,33.1
2022-08-25T11:00:57.852Z,32.9
2022-08-25T11:05:01.080Z,32.4
2022-08-25T11:07:02.612Z,32.5
2022-08-25T11:15:12.088Z,33.8
2022-08-25T11:17:13.716Z,33.8
2022-08-25T11:19:15.235Z,33.8
2022-08-25T11:21:16.811Z,34.4
2022-08-25T11:25:23.105Z,34.3
2022-08-25T11:29:47.137Z,34.2
2022-08-25T11:31:53.111Z,34.3
2022-08-25T11:33:50.199Z,34.7
2022-08-25T11:35:54.902Z,34.3
2022-08-25T11:37:56.480Z,34.4
2022-08-25T11:39:58.056Z,34.6
2022-08-25T11:41:59.552Z,35
2022-08-25T11:44:01.070Z,35.1
2022-08-25T11:46:02.660Z,35.2
2022-08-25T11:48:04.486Z,35.5
2022-08-25T11:50:08.903Z,35.2
2022-08-25T11:52:10.376Z,34.5
2022-08-25T11:54:11.903Z,34.6
2022-08-25T11:56:13.433Z,34.8
2022-08-25T11:58:14.965Z,34.4
2022-08-25T12:00:16.493Z,34.7
2022-08-25T12:02:18.014Z,35.1
2022-08-25T12:04:22.733Z,34.2
2022-08-25T12:06:24.239Z,34.1
2022-08-25T12:08:25.719Z,33.8
2022-08-25T12:10:27.259Z,34.3
2022-08-25T12:12:28.775Z,34.5
2022-08-25T12:14:30.222Z,34.8
2022-08-25T12:16:31.773Z,34.4
2022-08-25T12:18:36.382Z,35.4
2022-08-25T12:23:45.011Z,34.6
2022-08-25T12:25:43.570Z,34.3
2022-08-25T12:27:44.552Z,34.8
2022-08-25T12:29:46.056Z,34.9
2022-08-25T12:31:50.514Z,35.2
2022-08-25T12:33:51.894Z,35.1
2022-08-25T12:35:53.401Z,34.4
2022-08-25T12:37:54.863Z,34.7
2022-08-25T12:46:03.478Z,35.3
2022-08-25T12:48:04.819Z,35.2
2022-08-25T12:50:06.241Z,34.9
2022-08-25T12:52:07.512Z,35.3
2022-08-25T12:54:10.453Z,35.2
2022-08-25T12:56:10.411Z,35.2
2022-08-25T12:58:11.580Z,35
2022-08-25T13:00:15.759Z,34.8
2022-08-25T13:02:17.275Z,34.8
2022-08-25T13:04:18.473Z,35
2022-08-25T13:06:19.893Z,34.8
2022-08-25T13:08:21.212Z,35
2022-08-25T13:10:22.546Z,35.2
2022-08-25T13:12:23.859Z,34.5
2022-08-25T13:14:28.321Z,34.7
2022-08-25T13:16:30.102Z,34.9
2022-08-25T13:18:31.025Z,34.9
2022-08-25T13:21:35.180Z,34.6
2022-08-25T13:23:35.866Z,34.8
2022-08-25T13:25:37.275Z,34.9
2022-08-25T13:31:44.252Z,35
2022-08-25T13:33:45.539Z,34.7
2022-08-25T13:35:46.856Z,34.6
2022-08-25T13:37:48.173Z,34.8
2022-08-25T13:39:56.376Z,34.5
2022-08-25T13:41:55.511Z,34.1
2022-08-25T13:43:55.190Z,34.4
2022-08-25T13:47:57.828Z,34.4
2022-08-25T13:49:59.284Z,34.7
2022-08-25T13:52:00.448Z,34.8
2022-08-25T13:54:01.888Z,34.3
2022-08-25T13:56:06.275Z,34.7
2022-08-25T13:58:07.777Z,34.8
2022-08-25T14:00:09.507Z,34.6
2022-08-25T14:02:19.236Z,34.1
2022-08-25T14:06:12.839Z,34.8
2022-08-25T14:08:23.484Z,35
2022-08-25T14:10:18.524Z,35.3
2022-08-25T14:12:20.346Z,35.4
2022-08-25T14:14:21.147Z,35.4
2022-08-25T14:15:23.343Z,35
2022-08-25T14:17:39.824Z,35.1
2022-08-25T14:19:25.921Z,35.2
2022-08-25T14:21:27.218Z,35.2
2022-08-25T14:23:31.592Z,34.7
2022-08-25T14:25:32.872Z,34.8
2022-08-25T14:27:38.960Z,35
2022-08-25T14:29:35.577Z,35.2
2022-08-25T14:31:36.779Z,35.2
2022-08-25T14:33:37.983Z,35.3
2022-08-25T14:35:39.277Z,35.1
2022-08-25T14:37:43.612Z,35.2
2022-08-25T14:39:44.861Z,35.3
2022-08-25T14:41:48.713Z,35.4
2022-08-25T14:43:47.365Z,34.6
2022-08-25T14:45:48.677Z,34.8
2022-08-25T14:47:50.195Z,35.1
2022-08-25T14:49:51.113Z,35
2022-08-25T14:51:55.425Z,35
2022-08-25T14:53:56.685Z,35.1
2022-08-25T14:55:59.017Z,35.6
2022-08-25T14:57:59.800Z,35.5
2022-08-25T15:00:00.368Z,35
2022-08-25T15:02:01.596Z,35.1
2022-08-25T15:04:02.938Z,35.2
2022-08-25T15:06:07.098Z,35
2022-08-25T15:08:08.297Z,34.9
2022-08-25T15:10:09.573Z,35
2022-08-25T15:12:46.157Z,34.2
2022-08-25T15:14:33.309Z,34.1
2022-08-25T15:16:34.999Z,34.3
2022-08-25T15:18:37.978Z,34.6
2022-08-25T15:20:39.172Z,34.7
2022-08-25T15:22:41.766Z,34.6
2022-08-25T15:24:41.599Z,34.8
2022-08-25T15:26:42.863Z,34.9
2022-08-25T15:28:44.019Z,34.8
2022-08-25T15:30:45.892Z,35.1
2022-08-25T15:32:49.516Z,34.7
2022-08-25T15:34:50.728Z,34.7
2022-08-25T15:36:51.915Z,35
2022-08-25T15:38:53.104Z,35
2022-08-25T15:40:54.284Z,34.6
2022-08-25T15:42:55.479Z,34.5
2022-08-25T15:44:56.661Z,34.9
2022-08-25T15:47:01.186Z,34.7
2022-08-25T15:49:02.150Z,34.8
2022-08-25T15:51:03.318Z,34.9
2022-08-25T15:55:05.688Z,35.6
2022-08-25T15:57:08.776Z,35.6
2022-08-25T15:59:08.623Z,36.1
2022-08-25T16:01:12.399Z,35.1
2022-08-25T16:03:13.542Z,34.9
2022-08-25T16:05:16.136Z,35.2
2022-08-25T16:06:16.874Z,35.4
2022-08-25T16:08:19.366Z,35.4
2022-08-25T16:10:19.259Z,36.2
2022-08-25T16:12:20.562Z,36.4
2022-08-25T16:14:24.845Z,36.6
2022-08-25T16:16:26.058Z,36.5
2022-08-25T16:22:29.403Z,37.2
2022-08-25T16:24:30.606Z,37
2022-08-25T16:26:31.796Z,37.2
2022-08-25T16:28:36.095Z,36.4
2022-08-25T16:30:37.298Z,36.2
2022-08-25T16:32:38.497Z,36
2022-08-25T16:34:39.701Z,35.3
2022-08-25T16:36:40.927Z,36.1
2022-08-25T16:38:42.135Z,36.9
2022-08-25T16:40:43.370Z,36.7
2022-08-25T16:42:49.191Z,36.6
2022-08-25T16:44:50.421Z,36.6
2022-08-25T16:46:51.670Z,35.6
2022-08-25T16:48:52.857Z,35
2022-08-25T16:50:54.096Z,34.6
2022-08-25T16:54:56.623Z,33.3
2022-08-25T16:57:01.080Z,34.1
2022-08-25T16:59:02.484Z,34.5
2022-08-25T17:01:03.895Z,34
2022-08-25T17:02:06.331Z,33.9
2022-08-25T17:04:07.577Z,33.5
2022-08-25T17:06:09.135Z,33.5
2022-08-25T17:08:11.142Z,34.4
2022-08-25T17:10:15.055Z,34.7
2022-08-25T17:12:16.518Z,34.8
2022-08-25T17:14:18.028Z,34.8
2022-08-25T17:16:19.434Z,35.2
2022-08-25T17:18:20.855Z,35.5
2022-08-25T17:20:22.304Z,34.8
2022-08-25T17:22:23.766Z,34.1
2022-08-25T17:24:29.392Z,33.2
2022-08-25T17:26:29.874Z,33.1
2022-08-25T17:28:31.342Z,32.7
2022-08-25T17:30:32.831Z,31.9
2022-08-25T17:32:34.369Z,31.4
2022-08-25T17:34:35.844Z,31
2022-08-25T17:36:37.382Z,30.7
2022-08-25T17:38:42.106Z,30.4
2022-08-25T17:40:43.678Z,30.3
2022-08-25T17:42:45.193Z,30.4
2022-08-25T17:44:46.795Z,30.2
2022-08-25T17:46:48.399Z,29.8
2022-08-25T17:48:49.940Z,29.5
2022-08-25T17:50:51.568Z,29.4
2022-08-25T17:54:58.989Z,29.3
2022-08-25T17:56:59.791Z,29.1
2022-08-25T18:00:03.705Z,28.7
2022-08-25T18:04:07.025Z,28.3
2022-08-25T18:06:11.867Z,28.1
2022-08-25T18:08:13.556Z,28
2022-08-25T18:10:15.248Z,27.9
2022-08-25T18:12:16.959Z,27.8
2022-08-25T18:14:21.222Z,27.8
2022-08-25T18:16:20.407Z,27.9
2022-08-25T18:20:27.032Z,27.4
2022-08-25T18:22:28.766Z,27.3
2022-08-25T18:24:30.544Z,27.1
2022-08-25T18:26:32.289Z,26.9
2022-08-25T18:28:34.075Z,26.8
2022-08-25T18:30:35.838Z,26.7
2022-08-25T18:32:37.634Z,26.6
2022-08-25T18:34:42.507Z,26.5
2022-08-25T18:36:45.052Z,26.3
2022-08-25T18:38:46.112Z,26.3
2022-08-25T18:40:47.933Z,26.2
2022-08-25T18:42:49.728Z,26
2022-08-25T18:44:51.536Z,25.9
2022-08-25T18:51:00.216Z,25.6
2022-08-25T18:53:01.947Z,25.5
2022-08-25T18:59:28.096Z,25.2
2022-08-25T19:07:40.352Z,25
2022-08-25T19:09:40.499Z,24.9
2022-08-25T19:11:42.346Z,24.9
2022-08-25T19:13:44.236Z,24.9
2022-08-25T19:17:51.165Z,24.7
2022-08-25T19:19:52.927Z,24.6
2022-08-25T19:21:54.892Z,24.6
2022-08-25T19:25:58.595Z,24.6
2022-08-25T19:32:07.296Z,24.3
2022-08-25T19:44:37.118Z,23.9
2022-08-25T19:46:23.673Z,23.9
2022-08-25T19:49:28.021Z,23.8
2022-08-25T19:51:29.960Z,23.8
2022-08-25T19:53:31.803Z,23.7
2022-08-25T19:55:33.704Z,23.7
2022-08-25T19:57:42.803Z,23.7
2022-08-25T19:59:43.132Z,23.7
2022-08-25T20:01:42.529Z,23.6
2022-08-25T20:03:44.411Z,23.6
2022-08-25T20:05:46.325Z,23.5
2022-08-25T20:09:50.185Z,23.4
2022-08-25T20:11:55.148Z,23.4
2022-08-25T20:14:00.454Z,23.4
2022-08-25T20:15:59.078Z,23.5
2022-08-25T20:18:00.914Z,23.6
2022-08-25T20:20:04.724Z,23.6
2022-08-25T20:26:11.707Z,24
2022-08-25T20:28:18.561Z,24
2022-08-25T20:32:17.463Z,24
2022-08-25T20:36:21.293Z,23.8
2022-08-25T20:40:28.437Z,23.7
2022-08-25T20:44:33.621Z,23.7
2022-08-25T20:45:34.599Z,23.7
2022-08-25T20:47:36.520Z,23.7
2022-08-25T20:49:39.135Z,23.6
2022-08-25T20:51:41.079Z,23.6
2022-08-25T20:55:47.996Z,23.5
2022-08-25T20:57:49.922Z,23.5
2022-08-25T20:59:51.855Z,23.4
2022-08-25T21:01:53.965Z,23.4
2022-08-25T21:03:55.697Z,23.3
2022-08-25T21:05:57.646Z,23.2
2022-08-25T21:08:02.663Z,23.1
2022-08-25T21:10:04.587Z,23.1
2022-08-25T21:12:06.569Z,23.1
2022-08-25T21:14:08.434Z,23
2022-08-25T21:16:10.371Z,23
2022-08-25T21:18:12.299Z,23
2022-08-25T21:20:14.235Z,22.9
2022-08-25T21:22:19.257Z,22.8
2022-08-25T21:24:21.189Z,22.8
2022-08-25T21:26:23.115Z,22.8
2022-08-25T21:28:25.079Z,22.7
2022-08-25T21:30:27.127Z,22.7
2022-08-25T21:32:28.958Z,22.6
2022-08-25T21:34:30.874Z,22.5
2022-08-25T21:36:35.901Z,22.5
2022-08-25T21:38:37.836Z,22.5
2022-08-25T21:41:42.289Z,22.4
2022-08-25T21:43:44.232Z,22.4
2022-08-25T21:45:46.981Z,22.4
2022-08-25T21:47:48.130Z,22.3
2022-08-25T21:49:53.226Z,22.2
2022-08-25T21:52:00.481Z,22.2
2022-08-25T21:53:57.069Z,22.2
2022-08-25T21:55:59.055Z,22.2
2022-08-25T21:58:00.962Z,22.1
2022-08-25T22:00:02.979Z,22.1
2022-08-25T22:02:04.894Z,22.1
2022-08-25T22:04:09.902Z,22
2022-08-25T22:06:11.876Z,22
2022-08-25T22:14:19.676Z,21.8
2022-08-25T22:16:21.659Z,21.8
2022-08-25T22:22:30.589Z,21.7
2022-08-25T22:24:32.554Z,21.6
2022-08-25T22:26:34.512Z,21.7
2022-08-25T22:28:36.485Z,21.6
2022-08-25T22:30:38.480Z,21.6
2022-08-25T22:32:45.583Z,21.5
2022-08-25T22:36:49.089Z,21.5
2022-08-25T22:39:05.764Z,21.4
2022-08-25T22:43:10.895Z,21.4
2022-08-25T22:45:14.702Z,21.3
2022-08-25T22:47:16.655Z,21.3
2022-08-25T22:49:18.636Z,21.3
2022-08-25T22:51:20.595Z,21.3
2022-08-25T22:53:22.582Z,21.3
2022-08-25T22:55:24.536Z,21.2
2022-08-25T22:59:31.533Z,21.1
2022-08-25T23:01:33.495Z,21.1
2022-08-25T23:03:35.531Z,21.1
2022-08-25T23:09:41.344Z,21
2022-08-25T23:17:52.302Z,20.9
2022-08-25T23:19:54.325Z,20.9
2022-08-25T23:21:56.775Z,20.8
2022-08-25T23:23:58.217Z,20.8
2022-08-25T23:26:00.197Z,20.8
2022-08-25T23:28:05.287Z,20.7
2022-08-25T23:30:07.406Z,20.7
2022-08-25T23:32:09.273Z,20.8
2022-08-25T23:33:11.721Z,20.7
2022-08-25T23:37:15.663Z,20.7
2022-08-25T23:39:17.651Z,20.7
2022-08-25T23:41:22.751Z,20.7
2022-08-25T23:43:24.699Z,20.6
2022-08-25T23:45:26.712Z,20.7
2022-08-25T23:47:28.637Z,20.7
2022-08-25T23:51:32.587Z,20.7
2022-08-25T23:53:34.551Z,20.7
2022-08-25T23:55:39.613Z,20.7
2022-08-25T23:57:41.569Z,20.7
2022-08-25T23:59:43.569Z,20.7
